sensor_id;sensor_type;location;lat;lon;timestamp;P1;durP1;ratioP1;P2;durP2;ratioP2
25509;SDS011;13413;52.336;21.200;2023-05-10T00:01:19;11.50;;;7.60;;
25509;SDS011;13413;52.336;21.200;2023-05-10T00:04:13;14.30;;;7.80;;
25509;SDS011;13413;52.336;21.200;2023-05-10T00:07:07;14.00;;;7.60;;
25509;SDS011;13413;52.336;21.200;2023-05-10T00:10:01;10.80;;;7.10;;
25509;SDS011;13413;52.336;21.200;2023-05-10T00:12:55;13.00;;;7.50;;
25509;SDS011;13413;52.336;21.200;2023-05-10T00:15:48;10.60;;;6.90;;
25509;SDS011;13413;52.336;21.200;2023-05-10T00:18:43;11.90;;;7.80;;
25509;SDS011;13413;52.336;21.200;2023-05-10T00:21:39;12.50;;;7.90;;
25509;SDS011;13413;52.336;21.200;2023-05-10T00:24:34;9.60;;;7.60;;
25509;SDS011;13413;52.336;21.200;2023-05-10T00:27:28;10.10;;;7.20;;
25509;SDS011;13413;52.336;21.200;2023-05-10T00:30:22;11.00;;;7.30;;
25509;SDS011;13413;52.336;21.200;2023-05-10T00:33:16;10.20;;;7.10;;
25509;SDS011;13413;52.336;21.200;2023-05-10T00:36:10;10.80;;;7.90;;
25509;SDS011;13413;52.336;21.200;2023-05-10T00:39:04;15.10;;;7.50;;
25509;SDS011;13413;52.336;21.200;2023-05-10T00:41:59;13.30;;;7.10;;
25509;SDS011;13413;52.336;21.200;2023-05-10T00:44:52;10.20;;;6.80;;
25509;SDS011;13413;52.336;21.200;2023-05-10T00:47:47;10.00;;;6.90;;
25509;SDS011;13413;52.336;21.200;2023-05-10T00:50:43;12.90;;;7.40;;
25509;SDS011;13413;52.336;21.200;2023-05-10T00:53:37;15.10;;;7.30;;
25509;SDS011;13413;52.336;21.200;2023-05-10T00:56:32;11.80;;;7.20;;
25509;SDS011;13413;52.336;21.200;2023-05-10T00:59:27;13.60;;;7.20;;
25509;SDS011;13413;52.336;21.200;2023-05-10T01:02:22;13.10;;;6.70;;
25509;SDS011;13413;52.336;21.200;2023-05-10T01:05:16;10.90;;;6.90;;
25509;SDS011;13413;52.336;21.200;2023-05-10T01:08:11;10.80;;;6.60;;
25509;SDS011;13413;52.336;21.200;2023-05-10T01:11:05;12.50;;;6.80;;
25509;SDS011;13413;52.336;21.200;2023-05-10T01:13:59;9.20;;;6.60;;
25509;SDS011;13413;52.336;21.200;2023-05-10T01:16:54;12.50;;;6.90;;
25509;SDS011;13413;52.336;21.200;2023-05-10T01:20:06;11.70;;;7.50;;
25509;SDS011;13413;52.336;21.200;2023-05-10T01:23:12;12.10;;;7.00;;
25509;SDS011;13413;52.336;21.200;2023-05-10T01:26:37;10.20;;;6.80;;
25509;SDS011;13413;52.336;21.200;2023-05-10T01:33:17;12.90;;;6.80;;
25509;SDS011;13413;52.336;21.200;2023-05-10T01:36:18;13.60;;;6.80;;
25509;SDS011;13413;52.336;21.200;2023-05-10T01:39:20;11.80;;;6.90;;
25509;SDS011;13413;52.336;21.200;2023-05-10T01:42:19;13.30;;;6.90;;
25509;SDS011;13413;52.336;21.200;2023-05-10T01:45:20;10.30;;;6.20;;
25509;SDS011;13413;52.336;21.200;2023-05-10T01:56:25;10.50;;;5.80;;
25509;SDS011;13413;52.336;21.200;2023-05-10T01:59:22;9.40;;;6.30;;
25509;SDS011;13413;52.336;21.200;2023-05-10T02:02:20;9.50;;;6.30;;
25509;SDS011;13413;52.336;21.200;2023-05-10T02:05:15;11.30;;;6.10;;
25509;SDS011;13413;52.336;21.200;2023-05-10T02:08:09;14.30;;;7.00;;
25509;SDS011;13413;52.336;21.200;2023-05-10T02:14:14;8.80;;;5.70;;
25509;SDS011;13413;52.336;21.200;2023-05-10T02:17:10;11.00;;;6.40;;
25509;SDS011;13413;52.336;21.200;2023-05-10T02:23:02;6.70;;;5.70;;
25509;SDS011;13413;52.336;21.200;2023-05-10T02:25:57;8.60;;;5.30;;
25509;SDS011;13413;52.336;21.200;2023-05-10T02:28:54;8.50;;;5.30;;
25509;SDS011;13413;52.336;21.200;2023-05-10T02:31:49;9.00;;;5.30;;
25509;SDS011;13413;52.336;21.200;2023-05-10T02:34:46;7.70;;;5.70;;
25509;SDS011;13413;52.336;21.200;2023-05-10T02:37:40;6.90;;;5.50;;
25509;SDS011;13413;52.336;21.200;2023-05-10T02:40:36;8.00;;;5.40;;
25509;SDS011;13413;52.336;21.200;2023-05-10T02:43:32;10.10;;;5.40;;
25509;SDS011;13413;52.336;21.200;2023-05-10T02:46:26;7.60;;;5.10;;
25509;SDS011;13413;52.336;21.200;2023-05-10T02:49:20;9.60;;;4.70;;
25509;SDS011;13413;52.336;21.200;2023-05-10T02:52:15;11.60;;;4.90;;
25509;SDS011;13413;52.336;21.200;2023-05-10T02:55:14;10.60;;;5.70;;
25509;SDS011;13413;52.336;21.200;2023-05-10T02:58:11;6.90;;;5.30;;
25509;SDS011;13413;52.336;21.200;2023-05-10T03:01:18;7.40;;;5.70;;
25509;SDS011;13413;52.336;21.200;2023-05-10T03:04:12;10.50;;;5.60;;
25509;SDS011;13413;52.336;21.200;2023-05-10T03:07:06;9.40;;;5.70;;
25509;SDS011;13413;52.336;21.200;2023-05-10T03:10:00;11.30;;;5.60;;
25509;SDS011;13413;52.336;21.200;2023-05-10T03:13:01;15.40;;;6.10;;
25509;SDS011;13413;52.336;21.200;2023-05-10T03:16:07;9.10;;;6.30;;
25509;SDS011;13413;52.336;21.200;2023-05-10T03:19:06;6.60;;;5.00;;
25509;SDS011;13413;52.336;21.200;2023-05-10T03:22:26;9.50;;;5.70;;
25509;SDS011;13413;52.336;21.200;2023-05-10T03:25:26;9.00;;;5.90;;
25509;SDS011;13413;52.336;21.200;2023-05-10T03:28:22;9.80;;;6.00;;
25509;SDS011;13413;52.336;21.200;2023-05-10T03:31:19;12.30;;;6.00;;
25509;SDS011;13413;52.336;21.200;2023-05-10T03:34:13;11.40;;;5.40;;
25509;SDS011;13413;52.336;21.200;2023-05-10T03:37:08;9.00;;;5.90;;
25509;SDS011;13413;52.336;21.200;2023-05-10T03:40:02;12.10;;;5.80;;
25509;SDS011;13413;52.336;21.200;2023-05-10T03:42:57;7.00;;;5.50;;
25509;SDS011;13413;52.336;21.200;2023-05-10T03:45:51;8.00;;;5.60;;
25509;SDS011;13413;52.336;21.200;2023-05-10T03:48:45;5.00;;;3.70;;
25509;SDS011;13413;52.336;21.200;2023-05-10T03:51:39;9.30;;;6.20;;
25509;SDS011;13413;52.336;21.200;2023-05-10T03:54:33;10.60;;;5.10;;
25509;SDS011;13413;52.336;21.200;2023-05-10T03:57:27;12.30;;;6.30;;
25509;SDS011;13413;52.336;21.200;2023-05-10T04:00:21;8.80;;;6.00;;
25509;SDS011;13413;52.336;21.200;2023-05-10T04:03:15;8.20;;;5.50;;
25509;SDS011;13413;52.336;21.200;2023-05-10T04:20:34;9.80;;;6.10;;
25509;SDS011;13413;52.336;21.200;2023-05-10T04:26:22;10.90;;;5.70;;
25509;SDS011;13413;52.336;21.200;2023-05-10T04:29:16;9.00;;;5.50;;
25509;SDS011;13413;52.336;21.200;2023-05-10T04:32:10;8.70;;;5.60;;
25509;SDS011;13413;52.336;21.200;2023-05-10T04:35:05;8.60;;;6.10;;
25509;SDS011;13413;52.336;21.200;2023-05-10T04:38:00;9.70;;;6.60;;
25509;SDS011;13413;52.336;21.200;2023-05-10T04:40:54;10.80;;;6.90;;
25509;SDS011;13413;52.336;21.200;2023-05-10T04:43:55;8.60;;;5.60;;
25509;SDS011;13413;52.336;21.200;2023-05-10T04:46:49;8.20;;;5.30;;
25509;SDS011;13413;52.336;21.200;2023-05-10T04:49:43;10.90;;;6.10;;
25509;SDS011;13413;52.336;21.200;2023-05-10T04:52:37;9.40;;;5.70;;
25509;SDS011;13413;52.336;21.200;2023-05-10T04:55:31;7.20;;;5.00;;
25509;SDS011;13413;52.336;21.200;2023-05-10T04:58:39;10.50;;;5.60;;
25509;SDS011;13413;52.336;21.200;2023-05-10T05:01:33;9.40;;;4.90;;
25509;SDS011;13413;52.336;21.200;2023-05-10T05:04:27;8.60;;;5.20;;
25509;SDS011;13413;52.336;21.200;2023-05-10T05:07:21;13.20;;;5.90;;
25509;SDS011;13413;52.336;21.200;2023-05-10T05:10:15;11.40;;;5.90;;
25509;SDS011;13413;52.336;21.200;2023-05-10T05:13:09;8.00;;;5.00;;
25509;SDS011;13413;52.336;21.200;2023-05-10T05:16:05;9.10;;;5.30;;
25509;SDS011;13413;52.336;21.200;2023-05-10T05:18:59;9.70;;;5.50;;
25509;SDS011;13413;52.336;21.200;2023-05-10T05:21:53;7.20;;;5.40;;
25509;SDS011;13413;52.336;21.200;2023-05-10T05:24:47;7.40;;;5.10;;
25509;SDS011;13413;52.336;21.200;2023-05-10T05:27:41;9.60;;;5.70;;
25509;SDS011;13413;52.336;21.200;2023-05-10T05:30:35;8.40;;;4.70;;
25509;SDS011;13413;52.336;21.200;2023-05-10T05:33:29;16.30;;;5.30;;
25509;SDS011;13413;52.336;21.200;2023-05-10T05:36:23;11.90;;;4.30;;
25509;SDS011;13413;52.336;21.200;2023-05-10T05:39:17;10.70;;;4.40;;
25509;SDS011;13413;52.336;21.200;2023-05-10T05:42:11;13.80;;;5.60;;
25509;SDS011;13413;52.336;21.200;2023-05-10T05:45:06;9.00;;;4.60;;
25509;SDS011;13413;52.336;21.200;2023-05-10T05:48:01;11.30;;;4.80;;
25509;SDS011;13413;52.336;21.200;2023-05-10T05:50:56;10.30;;;5.30;;
25509;SDS011;13413;52.336;21.200;2023-05-10T05:53:50;11.50;;;4.30;;
25509;SDS011;13413;52.336;21.200;2023-05-10T05:56:46;8.40;;;4.50;;
25509;SDS011;13413;52.336;21.200;2023-05-10T05:59:40;12.30;;;4.70;;
25509;SDS011;13413;52.336;21.200;2023-05-10T06:02:34;16.70;;;5.50;;
25509;SDS011;13413;52.336;21.200;2023-05-10T06:05:28;11.90;;;4.70;;
25509;SDS011;13413;52.336;21.200;2023-05-10T06:08:22;13.70;;;4.60;;
25509;SDS011;13413;52.336;21.200;2023-05-10T06:11:16;12.80;;;4.60;;
25509;SDS011;13413;52.336;21.200;2023-05-10T06:14:10;19.30;;;4.60;;
25509;SDS011;13413;52.336;21.200;2023-05-10T06:17:05;10.40;;;4.20;;
25509;SDS011;13413;52.336;21.200;2023-05-10T06:19:59;11.50;;;4.60;;
25509;SDS011;13413;52.336;21.200;2023-05-10T06:22:53;9.60;;;3.60;;
25509;SDS011;13413;52.336;21.200;2023-05-10T06:25:47;13.80;;;5.20;;
25509;SDS011;13413;52.336;21.200;2023-05-10T06:28:44;9.90;;;4.20;;
25509;SDS011;13413;52.336;21.200;2023-05-10T06:42:42;12.00;;;4.40;;
25509;SDS011;13413;52.336;21.200;2023-05-10T06:45:36;46.80;;;6.40;;
25509;SDS011;13413;52.336;21.200;2023-05-10T06:48:30;12.40;;;4.30;;
25509;SDS011;13413;52.336;21.200;2023-05-10T06:51:24;15.40;;;4.50;;
25509;SDS011;13413;52.336;21.200;2023-05-10T06:54:18;6.90;;;3.60;;
25509;SDS011;13413;52.336;21.200;2023-05-10T06:57:12;5.80;;;3.20;;
25509;SDS011;13413;52.336;21.200;2023-05-10T07:00:07;13.30;;;4.20;;
25509;SDS011;13413;52.336;21.200;2023-05-10T07:03:02;11.00;;;3.40;;
25509;SDS011;13413;52.336;21.200;2023-05-10T07:06:01;7.30;;;3.50;;
25509;SDS011;13413;52.336;21.200;2023-05-10T07:08:55;6.10;;;3.10;;
25509;SDS011;13413;52.336;21.200;2023-05-10T07:11:51;4.50;;;3.20;;
25509;SDS011;13413;52.336;21.200;2023-05-10T07:14:45;7.30;;;3.20;;
25509;SDS011;13413;52.336;21.200;2023-05-10T07:17:39;7.60;;;2.90;;
25509;SDS011;13413;52.336;21.200;2023-05-10T07:20:33;7.40;;;3.10;;
25509;SDS011;13413;52.336;21.200;2023-05-10T07:23:27;7.40;;;2.50;;
25509;SDS011;13413;52.336;21.200;2023-05-10T07:26:21;8.30;;;2.90;;
25509;SDS011;13413;52.336;21.200;2023-05-10T07:29:15;8.40;;;3.30;;
25509;SDS011;13413;52.336;21.200;2023-05-10T07:32:09;4.10;;;2.30;;
25509;SDS011;13413;52.336;21.200;2023-05-10T07:35:03;5.60;;;2.70;;
25509;SDS011;13413;52.336;21.200;2023-05-10T07:37:59;6.00;;;2.40;;
25509;SDS011;13413;52.336;21.200;2023-05-10T07:40:53;3.20;;;2.60;;
25509;SDS011;13413;52.336;21.200;2023-05-10T07:43:47;2.70;;;2.30;;
25509;SDS011;13413;52.336;21.200;2023-05-10T07:46:41;9.80;;;2.60;;
25509;SDS011;13413;52.336;21.200;2023-05-10T07:49:35;11.00;;;3.30;;
25509;SDS011;13413;52.336;21.200;2023-05-10T07:52:29;5.50;;;2.40;;
25509;SDS011;13413;52.336;21.200;2023-05-10T07:55:23;4.90;;;3.00;;
25509;SDS011;13413;52.336;21.200;2023-05-10T07:58:17;3.20;;;2.40;;
25509;SDS011;13413;52.336;21.200;2023-05-10T08:01:11;5.80;;;2.70;;
25509;SDS011;13413;52.336;21.200;2023-05-10T08:04:05;5.30;;;2.80;;
25509;SDS011;13413;52.336;21.200;2023-05-10T08:06:59;6.90;;;3.30;;
25509;SDS011;13413;52.336;21.200;2023-05-10T08:09:53;8.60;;;2.40;;
25509;SDS011;13413;52.336;21.200;2023-05-10T08:12:47;10.40;;;3.40;;
25509;SDS011;13413;52.336;21.200;2023-05-10T08:15:41;6.00;;;2.90;;
25509;SDS011;13413;52.336;21.200;2023-05-10T08:18:35;7.80;;;2.80;;
25509;SDS011;13413;52.336;21.200;2023-05-10T08:21:29;5.10;;;2.00;;
25509;SDS011;13413;52.336;21.200;2023-05-10T08:24:23;4.80;;;2.90;;
25509;SDS011;13413;52.336;21.200;2023-05-10T08:27:17;4.10;;;2.20;;
25509;SDS011;13413;52.336;21.200;2023-05-10T08:30:12;2.90;;;2.40;;
25509;SDS011;13413;52.336;21.200;2023-05-10T08:33:06;9.10;;;2.70;;
25509;SDS011;13413;52.336;21.200;2023-05-10T08:36:00;3.60;;;2.40;;
25509;SDS011;13413;52.336;21.200;2023-05-10T08:38:55;9.20;;;2.70;;
25509;SDS011;13413;52.336;21.200;2023-05-10T08:41:51;20.40;;;4.10;;
25509;SDS011;13413;52.336;21.200;2023-05-10T08:44:46;6.50;;;2.30;;
25509;SDS011;13413;52.336;21.200;2023-05-10T08:47:42;6.50;;;2.80;;
25509;SDS011;13413;52.336;21.200;2023-05-10T08:50:37;5.20;;;2.70;;
25509;SDS011;13413;52.336;21.200;2023-05-10T08:53:32;4.30;;;2.60;;
25509;SDS011;13413;52.336;21.200;2023-05-10T09:07:49;7.30;;;3.00;;
25509;SDS011;13413;52.336;21.200;2023-05-10T09:10:44;3.60;;;2.00;;
25509;SDS011;13413;52.336;21.200;2023-05-10T09:13:38;6.70;;;2.60;;
25509;SDS011;13413;52.336;21.200;2023-05-10T09:19:25;17.80;;;3.40;;
25509;SDS011;13413;52.336;21.200;2023-05-10T09:22:19;4.30;;;2.50;;
25509;SDS011;13413;52.336;21.200;2023-05-10T09:25:16;10.90;;;2.80;;
25509;SDS011;13413;52.336;21.200;2023-05-10T09:28:10;2.90;;;2.60;;
25509;SDS011;13413;52.336;21.200;2023-05-10T09:33:57;4.90;;;2.50;;
25509;SDS011;13413;52.336;21.200;2023-05-10T09:36:52;5.80;;;2.70;;
25509;SDS011;13413;52.336;21.200;2023-05-10T09:39:47;3.70;;;2.40;;
25509;SDS011;13413;52.336;21.200;2023-05-10T09:42:54;9.00;;;3.40;;
25509;SDS011;13413;52.336;21.200;2023-05-10T09:45:49;6.50;;;2.80;;
25509;SDS011;13413;52.336;21.200;2023-05-10T09:48:44;21.70;;;4.50;;
25509;SDS011;13413;52.336;21.200;2023-05-10T09:51:38;7.70;;;3.30;;
25509;SDS011;13413;52.336;21.200;2023-05-10T09:54:32;5.40;;;2.80;;
25509;SDS011;13413;52.336;21.200;2023-05-10T09:57:28;10.60;;;2.70;;
25509;SDS011;13413;52.336;21.200;2023-05-10T10:00:23;4.40;;;2.50;;
25509;SDS011;13413;52.336;21.200;2023-05-10T10:06:11;6.50;;;2.40;;
25509;SDS011;13413;52.336;21.200;2023-05-10T10:09:12;7.70;;;2.90;;
25509;SDS011;13413;52.336;21.200;2023-05-10T10:12:07;5.90;;;2.30;;
25509;SDS011;13413;52.336;21.200;2023-05-10T10:15:01;5.60;;;2.50;;
25509;SDS011;13413;52.336;21.200;2023-05-10T10:17:56;3.80;;;2.60;;
25509;SDS011;13413;52.336;21.200;2023-05-10T10:23:44;5.40;;;2.30;;
25509;SDS011;13413;52.336;21.200;2023-05-10T10:32:30;15.70;;;3.10;;
25509;SDS011;13413;52.336;21.200;2023-05-10T10:35:32;5.60;;;3.00;;
25509;SDS011;13413;52.336;21.200;2023-05-10T10:38:59;6.00;;;2.80;;
25509;SDS011;13413;52.336;21.200;2023-05-10T10:41:55;7.00;;;2.70;;
25509;SDS011;13413;52.336;21.200;2023-05-10T10:44:49;8.80;;;2.70;;
25509;SDS011;13413;52.336;21.200;2023-05-10T10:48:21;3.80;;;2.20;;
25509;SDS011;13413;52.336;21.200;2023-05-10T10:51:16;7.10;;;2.40;;
25509;SDS011;13413;52.336;21.200;2023-05-10T10:54:11;5.30;;;3.30;;
25509;SDS011;13413;52.336;21.200;2023-05-10T10:57:19;10.30;;;2.90;;
25509;SDS011;13413;52.336;21.200;2023-05-10T11:00:21;7.60;;;2.70;;
25509;SDS011;13413;52.336;21.200;2023-05-10T11:03:17;7.40;;;2.60;;
25509;SDS011;13413;52.336;21.200;2023-05-10T11:06:12;3.80;;;2.60;;
25509;SDS011;13413;52.336;21.200;2023-05-10T11:09:20;4.30;;;2.80;;
25509;SDS011;13413;52.336;21.200;2023-05-10T11:12:18;6.50;;;3.00;;
25509;SDS011;13413;52.336;21.200;2023-05-10T11:15:12;8.70;;;2.70;;
25509;SDS011;13413;52.336;21.200;2023-05-10T11:30:21;8.00;;;2.60;;
25509;SDS011;13413;52.336;21.200;2023-05-10T11:33:18;9.60;;;3.00;;
25509;SDS011;13413;52.336;21.200;2023-05-10T11:36:13;3.40;;;2.30;;
25509;SDS011;13413;52.336;21.200;2023-05-10T11:39:08;4.80;;;2.20;;
25509;SDS011;13413;52.336;21.200;2023-05-10T11:42:02;3.40;;;2.30;;
25509;SDS011;13413;52.336;21.200;2023-05-10T11:44:56;4.00;;;2.50;;
25509;SDS011;13413;52.336;21.200;2023-05-10T11:47:52;3.80;;;2.40;;
25509;SDS011;13413;52.336;21.200;2023-05-10T11:53:43;11.50;;;3.30;;
25509;SDS011;13413;52.336;21.200;2023-05-10T11:56:37;5.50;;;2.70;;
25509;SDS011;13413;52.336;21.200;2023-05-10T11:59:32;5.10;;;2.50;;
25509;SDS011;13413;52.336;21.200;2023-05-10T12:02:26;10.70;;;4.30;;
25509;SDS011;13413;52.336;21.200;2023-05-10T12:08:15;6.60;;;2.90;;
25509;SDS011;13413;52.336;21.200;2023-05-10T12:11:13;4.50;;;2.10;;
25509;SDS011;13413;52.336;21.200;2023-05-10T12:17:01;8.40;;;2.60;;
25509;SDS011;13413;52.336;21.200;2023-05-10T12:19:55;7.10;;;2.20;;
25509;SDS011;13413;52.336;21.200;2023-05-10T12:23:04;6.90;;;2.40;;
25509;SDS011;13413;52.336;21.200;2023-05-10T12:26:03;13.10;;;3.20;;
25509;SDS011;13413;52.336;21.200;2023-05-10T12:29:11;5.80;;;2.40;;
25509;SDS011;13413;52.336;21.200;2023-05-10T12:32:06;7.30;;;2.90;;
25509;SDS011;13413;52.336;21.200;2023-05-10T12:35:00;3.50;;;2.70;;
25509;SDS011;13413;52.336;21.200;2023-05-10T12:40:47;3.00;;;2.40;;
25509;SDS011;13413;52.336;21.200;2023-05-10T12:43:41;2.90;;;1.90;;
25509;SDS011;13413;52.336;21.200;2023-05-10T12:49:28;7.00;;;2.90;;
25509;SDS011;13413;52.336;21.200;2023-05-10T12:55:16;6.30;;;2.60;;
25509;SDS011;13413;52.336;21.200;2023-05-10T12:58:10;6.50;;;3.10;;
25509;SDS011;13413;52.336;21.200;2023-05-10T13:01:04;5.40;;;2.50;;
25509;SDS011;13413;52.336;21.200;2023-05-10T13:03:59;6.50;;;2.70;;
25509;SDS011;13413;52.336;21.200;2023-05-10T13:06:53;3.80;;;2.20;;
25509;SDS011;13413;52.336;21.200;2023-05-10T13:09:48;5.30;;;3.10;;
25509;SDS011;13413;52.336;21.200;2023-05-10T13:12:42;5.70;;;2.50;;
25509;SDS011;13413;52.336;21.200;2023-05-10T13:15:37;7.00;;;2.50;;
25509;SDS011;13413;52.336;21.200;2023-05-10T13:18:31;6.60;;;2.90;;
25509;SDS011;13413;52.336;21.200;2023-05-10T13:21:26;9.70;;;2.60;;
25509;SDS011;13413;52.336;21.200;2023-05-10T13:24:21;5.50;;;2.90;;
25509;SDS011;13413;52.336;21.200;2023-05-10T13:27:15;4.40;;;3.10;;
25509;SDS011;13413;52.336;21.200;2023-05-10T13:30:10;3.50;;;3.00;;
25509;SDS011;13413;52.336;21.200;2023-05-10T13:35:57;18.40;;;3.80;;
25509;SDS011;13413;52.336;21.200;2023-05-10T13:38:52;11.00;;;2.20;;
25509;SDS011;13413;52.336;21.200;2023-05-10T13:50:36;6.00;;;2.30;;
25509;SDS011;13413;52.336;21.200;2023-05-10T13:53:30;4.20;;;2.50;;
25509;SDS011;13413;52.336;21.200;2023-05-10T13:56:38;5.30;;;2.70;;
25509;SDS011;13413;52.336;21.200;2023-05-10T13:59:34;3.10;;;2.00;;
25509;SDS011;13413;52.336;21.200;2023-05-10T14:02:28;6.50;;;2.40;;
25509;SDS011;13413;52.336;21.200;2023-05-10T14:05:22;4.20;;;2.10;;
25509;SDS011;13413;52.336;21.200;2023-05-10T14:08:16;2.50;;;2.30;;
25509;SDS011;13413;52.336;21.200;2023-05-10T14:11:09;2.70;;;2.30;;
25509;SDS011;13413;52.336;21.200;2023-05-10T14:14:03;4.10;;;2.50;;
25509;SDS011;13413;52.336;21.200;2023-05-10T14:16:57;5.10;;;2.70;;
25509;SDS011;13413;52.336;21.200;2023-05-10T14:19:51;4.80;;;2.60;;
25509;SDS011;13413;52.336;21.200;2023-05-10T14:22:43;6.20;;;2.30;;
25509;SDS011;13413;52.336;21.200;2023-05-10T14:25:37;4.60;;;1.90;;
25509;SDS011;13413;52.336;21.200;2023-05-10T14:28:30;5.90;;;3.10;;
25509;SDS011;13413;52.336;21.200;2023-05-10T14:31:23;3.50;;;2.60;;
25509;SDS011;13413;52.336;21.200;2023-05-10T14:34:16;4.20;;;2.20;;
25509;SDS011;13413;52.336;21.200;2023-05-10T14:37:10;11.40;;;2.40;;
25509;SDS011;13413;52.336;21.200;2023-05-10T14:42:58;16.60;;;14.60;;
25509;SDS011;13413;52.336;21.200;2023-05-10T14:45:51;10.50;;;2.90;;
25509;SDS011;13413;52.336;21.200;2023-05-10T14:48:44;5.30;;;2.80;;
25509;SDS011;13413;52.336;21.200;2023-05-10T14:51:38;6.70;;;3.60;;
25509;SDS011;13413;52.336;21.200;2023-05-10T14:54:31;2.70;;;2.20;;
25509;SDS011;13413;52.336;21.200;2023-05-10T14:57:25;2.40;;;2.20;;
25509;SDS011;13413;52.336;21.200;2023-05-10T15:00:20;6.10;;;2.80;;
25509;SDS011;13413;52.336;21.200;2023-05-10T15:03:14;9.50;;;3.20;;
25509;SDS011;13413;52.336;21.200;2023-05-10T15:06:08;3.00;;;1.90;;
25509;SDS011;13413;52.336;21.200;2023-05-10T15:09:02;4.90;;;2.50;;
25509;SDS011;13413;52.336;21.200;2023-05-10T15:11:56;6.60;;;2.10;;
25509;SDS011;13413;52.336;21.200;2023-05-10T15:14:50;6.00;;;2.60;;
25509;SDS011;13413;52.336;21.200;2023-05-10T15:17:44;2.40;;;1.90;;
25509;SDS011;13413;52.336;21.200;2023-05-10T15:20:37;5.00;;;2.20;;
25509;SDS011;13413;52.336;21.200;2023-05-10T15:23:30;7.80;;;2.60;;
25509;SDS011;13413;52.336;21.200;2023-05-10T15:26:23;2.90;;;2.30;;
25509;SDS011;13413;52.336;21.200;2023-05-10T15:29:18;6.30;;;2.60;;
25509;SDS011;13413;52.336;21.200;2023-05-10T15:32:12;4.70;;;2.60;;
25509;SDS011;13413;52.336;21.200;2023-05-10T15:46:37;3.50;;;2.20;;
25509;SDS011;13413;52.336;21.200;2023-05-10T15:49:32;2.60;;;2.00;;
25509;SDS011;13413;52.336;21.200;2023-05-10T15:52:27;6.00;;;2.70;;
25509;SDS011;13413;52.336;21.200;2023-05-10T15:55:20;2.90;;;2.30;;
25509;SDS011;13413;52.336;21.200;2023-05-10T15:58:14;4.90;;;1.60;;
25509;SDS011;13413;52.336;21.200;2023-05-10T16:01:09;3.90;;;2.40;;
25509;SDS011;13413;52.336;21.200;2023-05-10T16:04:03;3.00;;;2.50;;
25509;SDS011;13413;52.336;21.200;2023-05-10T16:06:58;3.90;;;2.10;;
25509;SDS011;13413;52.336;21.200;2023-05-10T16:09:53;3.00;;;2.20;;
25509;SDS011;13413;52.336;21.200;2023-05-10T16:12:47;4.70;;;2.10;;
25509;SDS011;13413;52.336;21.200;2023-05-10T16:15:42;6.20;;;2.60;;
25509;SDS011;13413;52.336;21.200;2023-05-10T16:18:36;5.30;;;2.90;;
25509;SDS011;13413;52.336;21.200;2023-05-10T16:21:30;5.00;;;2.60;;
25509;SDS011;13413;52.336;21.200;2023-05-10T16:24:25;3.70;;;1.80;;
25509;SDS011;13413;52.336;21.200;2023-05-10T16:27:19;2.90;;;2.30;;
25509;SDS011;13413;52.336;21.200;2023-05-10T16:30:13;2.80;;;2.10;;
25509;SDS011;13413;52.336;21.200;2023-05-10T16:33:08;6.80;;;2.20;;
25509;SDS011;13413;52.336;21.200;2023-05-10T16:38:56;8.50;;;2.40;;
25509;SDS011;13413;52.336;21.200;2023-05-10T16:41:50;3.00;;;2.60;;
25509;SDS011;13413;52.336;21.200;2023-05-10T16:44:45;3.50;;;2.40;;
25509;SDS011;13413;52.336;21.200;2023-05-10T16:47:40;6.10;;;4.70;;
25509;SDS011;13413;52.336;21.200;2023-05-10T16:53:27;8.20;;;3.10;;
25509;SDS011;13413;52.336;21.200;2023-05-10T16:56:21;6.10;;;2.50;;
25509;SDS011;13413;52.336;21.200;2023-05-10T16:59:15;5.60;;;2.70;;
25509;SDS011;13413;52.336;21.200;2023-05-10T17:02:10;3.20;;;2.80;;
25509;SDS011;13413;52.336;21.200;2023-05-10T17:05:05;7.30;;;4.20;;
25509;SDS011;13413;52.336;21.200;2023-05-10T17:08:01;11.00;;;4.30;;
25509;SDS011;13413;52.336;21.200;2023-05-10T17:10:55;4.60;;;3.30;;
25509;SDS011;13413;52.336;21.200;2023-05-10T17:13:52;6.00;;;2.30;;
25509;SDS011;13413;52.336;21.200;2023-05-10T17:16:46;3.10;;;2.20;;
25509;SDS011;13413;52.336;21.200;2023-05-10T17:19:40;5.20;;;2.70;;
25509;SDS011;13413;52.336;21.200;2023-05-10T17:22:38;3.80;;;2.90;;
25509;SDS011;13413;52.336;21.200;2023-05-10T17:25:33;4.20;;;2.90;;
25509;SDS011;13413;52.336;21.200;2023-05-10T17:28:28;4.60;;;3.00;;
25509;SDS011;13413;52.336;21.200;2023-05-10T17:31:23;3.80;;;2.50;;
25509;SDS011;13413;52.336;21.200;2023-05-10T17:37:11;7.30;;;3.00;;
25509;SDS011;13413;52.336;21.200;2023-05-10T17:40:07;8.10;;;2.30;;
25509;SDS011;13413;52.336;21.200;2023-05-10T17:43:03;8.80;;;2.60;;
25509;SDS011;13413;52.336;21.200;2023-05-10T17:45:57;4.10;;;2.40;;
25509;SDS011;13413;52.336;21.200;2023-05-10T17:48:52;10.40;;;2.50;;
25509;SDS011;13413;52.336;21.200;2023-05-10T17:51:45;4.50;;;2.60;;
25509;SDS011;13413;52.336;21.200;2023-05-10T17:54:40;4.60;;;2.30;;
25509;SDS011;13413;52.336;21.200;2023-05-10T18:06:01;6.20;;;4.10;;
25509;SDS011;13413;52.336;21.200;2023-05-10T18:08:56;7.70;;;2.90;;
25509;SDS011;13413;52.336;21.200;2023-05-10T18:11:50;4.70;;;2.70;;
25509;SDS011;13413;52.336;21.200;2023-05-10T18:14:47;5.50;;;3.40;;
25509;SDS011;13413;52.336;21.200;2023-05-10T18:17:41;10.20;;;3.10;;
25509;SDS011;13413;52.336;21.200;2023-05-10T18:20:36;28.40;;;25.50;;
25509;SDS011;13413;52.336;21.200;2023-05-10T18:23:31;37.40;;;29.60;;
25509;SDS011;13413;52.336;21.200;2023-05-10T18:26:26;52.70;;;39.60;;
25509;SDS011;13413;52.336;21.200;2023-05-10T18:29:20;71.40;;;50.50;;
25509;SDS011;13413;52.336;21.200;2023-05-10T18:32:14;60.90;;;42.40;;
25509;SDS011;13413;52.336;21.200;2023-05-10T18:35:08;24.30;;;17.20;;
25509;SDS011;13413;52.336;21.200;2023-05-10T18:38:03;11.90;;;9.30;;
25509;SDS011;13413;52.336;21.200;2023-05-10T18:40:58;11.30;;;6.60;;
25509;SDS011;13413;52.336;21.200;2023-05-10T18:43:52;11.00;;;6.90;;
25509;SDS011;13413;52.336;21.200;2023-05-10T18:46:47;8.60;;;4.20;;
25509;SDS011;13413;52.336;21.200;2023-05-10T18:49:42;9.70;;;4.60;;
25509;SDS011;13413;52.336;21.200;2023-05-10T18:52:36;13.00;;;8.60;;
25509;SDS011;13413;52.336;21.200;2023-05-10T18:58:25;79.20;;;53.20;;
25509;SDS011;13413;52.336;21.200;2023-05-10T19:01:20;50.00;;;35.70;;
25509;SDS011;13413;52.336;21.200;2023-05-10T19:07:08;27.00;;;16.00;;
25509;SDS011;13413;52.336;21.200;2023-05-10T19:16:01;15.20;;;7.80;;
25509;SDS011;13413;52.336;21.200;2023-05-10T19:19:14;23.90;;;9.20;;
25509;SDS011;13413;52.336;21.200;2023-05-10T19:22:09;19.10;;;7.90;;
25509;SDS011;13413;52.336;21.200;2023-05-10T19:25:04;18.00;;;7.10;;
25509;SDS011;13413;52.336;21.200;2023-05-10T19:28:15;12.20;;;7.00;;
25509;SDS011;13413;52.336;21.200;2023-05-10T19:34:39;15.40;;;9.10;;
25509;SDS011;13413;52.336;21.200;2023-05-10T19:37:33;13.60;;;8.10;;
25509;SDS011;13413;52.336;21.200;2023-05-10T19:40:27;11.70;;;8.50;;
25509;SDS011;13413;52.336;21.200;2023-05-10T19:43:21;11.90;;;8.40;;
25509;SDS011;13413;52.336;21.200;2023-05-10T19:46:15;17.80;;;9.40;;
25509;SDS011;13413;52.336;21.200;2023-05-10T19:49:09;16.10;;;9.20;;
25509;SDS011;13413;52.336;21.200;2023-05-10T19:52:16;19.70;;;12.50;;
25509;SDS011;13413;52.336;21.200;2023-05-10T19:55:10;16.80;;;9.90;;
25509;SDS011;13413;52.336;21.200;2023-05-10T19:58:20;13.80;;;8.40;;